sensor_id;sensor_type;location;lat;lon;timestamp;P1;durP1;ratioP1;P2;durP2;ratioP2
44784;SDS011;30507;53.160;8.210;2023-04-06T00:01:25;0.93;;;0.88;;
44784;SDS011;30507;53.160;8.210;2023-04-06T00:03:50;0.57;;;0.57;;
44784;SDS011;30507;53.160;8.210;2023-04-06T00:06:15;0.60;;;0.60;;
44784;SDS011;30507;53.160;8.210;2023-04-06T00:08:41;0.97;;;0.57;;
44784;SDS011;30507;53.160;8.210;2023-04-06T00:11:06;0.60;;;0.60;;
44784;SDS011;30507;53.160;8.210;2023-04-06T00:13:31;0.90;;;0.63;;
44784;SDS011;30507;53.160;8.210;2023-04-06T00:15:56;0.93;;;0.80;;
44784;SDS011;30507;53.160;8.210;2023-04-06T00:18:22;0.57;;;0.53;;
44784;SDS011;30507;53.160;8.210;2023-04-06T00:20:47;1.05;;;0.85;;
44784;SDS011;30507;53.160;8.210;2023-04-06T00:23:12;1.33;;;0.77;;
44784;SDS011;30507;53.160;8.210;2023-04-06T00:25:37;1.30;;;0.73;;
44784;SDS011;30507;53.160;8.210;2023-04-06T00:28:02;0.90;;;0.73;;
44784;SDS011;30507;53.160;8.210;2023-04-06T00:30:28;0.70;;;0.70;;
44784;SDS011;30507;53.160;8.210;2023-04-06T00:32:53;0.85;;;0.50;;
44784;SDS011;30507;53.160;8.210;2023-04-06T00:35:18;0.68;;;0.68;;
44784;SDS011;30507;53.160;8.210;2023-04-06T00:37:45;1.47;;;0.80;;
44784;SDS011;30507;53.160;8.210;2023-04-06T00:40:10;0.70;;;0.70;;
44784;SDS011;30507;53.160;8.210;2023-04-06T00:42:35;0.95;;;0.85;;
44784;SDS011;30507;53.160;8.210;2023-04-06T00:45:01;0.60;;;0.50;;
44784;SDS011;30507;53.160;8.210;2023-04-06T00:47:26;0.93;;;0.82;;
44784;SDS011;30507;53.160;8.210;2023-04-06T00:49:52;1.13;;;0.65;;
44784;SDS011;30507;53.160;8.210;2023-04-06T00:52:17;1.80;;;1.00;;
44784;SDS011;30507;53.160;8.210;2023-04-06T00:54:43;1.17;;;0.60;;
44784;SDS011;30507;53.160;8.210;2023-04-06T00:57:09;0.80;;;0.80;;
44784;SDS011;30507;53.160;8.210;2023-04-06T00:59:34;0.50;;;0.50;;
44784;SDS011;30507;53.160;8.210;2023-04-06T01:01:59;0.80;;;0.80;;
44784;SDS011;30507;53.160;8.210;2023-04-06T01:04:24;0.77;;;0.60;;
44784;SDS011;30507;53.160;8.210;2023-04-06T01:06:50;0.77;;;0.70;;
44784;SDS011;30507;53.160;8.210;2023-04-06T01:09:15;0.50;;;0.50;;
44784;SDS011;30507;53.160;8.210;2023-04-06T01:11:40;0.75;;;0.63;;
44784;SDS011;30507;53.160;8.210;2023-04-06T01:14:05;0.73;;;0.70;;
44784;SDS011;30507;53.160;8.210;2023-04-06T01:16:31;0.70;;;0.67;;
44784;SDS011;30507;53.160;8.210;2023-04-06T01:18:56;0.70;;;0.67;;
44784;SDS011;30507;53.160;8.210;2023-04-06T01:21:21;0.60;;;0.60;;
44784;SDS011;30507;53.160;8.210;2023-04-06T01:23:46;0.70;;;0.68;;
44784;SDS011;30507;53.160;8.210;2023-04-06T01:26:12;0.83;;;0.80;;
44784;SDS011;30507;53.160;8.210;2023-04-06T01:28:37;0.63;;;0.63;;
44784;SDS011;30507;53.160;8.210;2023-04-06T01:31:03;0.87;;;0.67;;
44784;SDS011;30507;53.160;8.210;2023-04-06T01:33:28;0.65;;;0.65;;
44784;SDS011;30507;53.160;8.210;2023-04-06T01:35:53;0.50;;;0.50;;
44784;SDS011;30507;53.160;8.210;2023-04-06T01:38:18;0.93;;;0.67;;
44784;SDS011;30507;53.160;8.210;2023-04-06T01:40:43;0.67;;;0.60;;
44784;SDS011;30507;53.160;8.210;2023-04-06T01:43:08;0.80;;;0.80;;
44784;SDS011;30507;53.160;8.210;2023-04-06T01:45:34;0.70;;;0.70;;
44784;SDS011;30507;53.160;8.210;2023-04-06T01:47:59;0.60;;;0.60;;
44784;SDS011;30507;53.160;8.210;2023-04-06T01:50:24;0.93;;;0.80;;
44784;SDS011;30507;53.160;8.210;2023-04-06T01:52:49;0.90;;;0.90;;
44784;SDS011;30507;53.160;8.210;2023-04-06T01:55:15;0.85;;;0.85;;
44784;SDS011;30507;53.160;8.210;2023-04-06T01:57:40;1.43;;;0.67;;
44784;SDS011;30507;53.160;8.210;2023-04-06T02:00:05;0.60;;;0.60;;
44784;SDS011;30507;53.160;8.210;2023-04-06T02:02:30;0.82;;;0.70;;
44784;SDS011;30507;53.160;8.210;2023-04-06T02:04:56;0.77;;;0.73;;
44784;SDS011;30507;53.160;8.210;2023-04-06T02:07:21;0.70;;;0.70;;
44784;SDS011;30507;53.160;8.210;2023-04-06T02:09:46;0.70;;;0.70;;
44784;SDS011;30507;53.160;8.210;2023-04-06T02:12:11;0.88;;;0.88;;
44784;SDS011;30507;53.160;8.210;2023-04-06T02:14:36;0.85;;;0.85;;
44784;SDS011;30507;53.160;8.210;2023-04-06T02:17:01;0.63;;;0.63;;
44784;SDS011;30507;53.160;8.210;2023-04-06T02:19:26;1.00;;;0.90;;
44784;SDS011;30507;53.160;8.210;2023-04-06T02:21:52;2.37;;;0.80;;
44784;SDS011;30507;53.160;8.210;2023-04-06T02:24:17;0.60;;;0.60;;
44784;SDS011;30507;53.160;8.210;2023-04-06T02:26:42;0.60;;;0.60;;
44784;SDS011;30507;53.160;8.210;2023-04-06T02:29:07;0.95;;;0.95;;
44784;SDS011;30507;53.160;8.210;2023-04-06T02:31:32;0.90;;;0.90;;
44784;SDS011;30507;53.160;8.210;2023-04-06T02:33:57;0.60;;;0.60;;
44784;SDS011;30507;53.160;8.210;2023-04-06T02:36:23;0.60;;;0.60;;
44784;SDS011;30507;53.160;8.210;2023-04-06T02:38:48;1.20;;;1.05;;
44784;SDS011;30507;53.160;8.210;2023-04-06T02:41:13;0.80;;;0.80;;
44784;SDS011;30507;53.160;8.210;2023-04-06T02:43:38;0.73;;;0.70;;
44784;SDS011;30507;53.160;8.210;2023-04-06T02:46:03;0.90;;;0.90;;
44784;SDS011;30507;53.160;8.210;2023-04-06T02:48:28;0.87;;;0.70;;
44784;SDS011;30507;53.160;8.210;2023-04-06T02:50:54;1.07;;;1.07;;
44784;SDS011;30507;53.160;8.210;2023-04-06T02:53:19;1.08;;;0.85;;
44784;SDS011;30507;53.160;8.210;2023-04-06T02:55:44;0.73;;;0.73;;
44784;SDS011;30507;53.160;8.210;2023-04-06T02:58:09;0.80;;;0.80;;
44784;SDS011;30507;53.160;8.210;2023-04-06T03:00:34;1.15;;;1.08;;
44784;SDS011;30507;53.160;8.210;2023-04-06T03:03:01;0.77;;;0.75;;
44784;SDS011;30507;53.160;8.210;2023-04-06T03:05:26;0.70;;;0.70;;
44784;SDS011;30507;53.160;8.210;2023-04-06T03:07:51;0.70;;;0.70;;
44784;SDS011;30507;53.160;8.210;2023-04-06T03:10:16;1.03;;;1.03;;
44784;SDS011;30507;53.160;8.210;2023-04-06T03:12:41;0.87;;;0.77;;
44784;SDS011;30507;53.160;8.210;2023-04-06T03:15:07;0.57;;;0.55;;
44784;SDS011;30507;53.160;8.210;2023-04-06T03:17:32;0.75;;;0.63;;
44784;SDS011;30507;53.160;8.210;2023-04-06T03:19:57;0.73;;;0.52;;
44784;SDS011;30507;53.160;8.210;2023-04-06T03:22:22;0.82;;;0.82;;
44784;SDS011;30507;53.160;8.210;2023-04-06T03:24:48;0.80;;;0.80;;
44784;SDS011;30507;53.160;8.210;2023-04-06T03:27:13;0.80;;;0.80;;
44784;SDS011;30507;53.160;8.210;2023-04-06T03:29:38;0.60;;;0.60;;
44784;SDS011;30507;53.160;8.210;2023-04-06T03:32:03;0.83;;;0.67;;
44784;SDS011;30507;53.160;8.210;2023-04-06T03:34:28;0.98;;;0.98;;
44784;SDS011;30507;53.160;8.210;2023-04-06T03:36:54;0.70;;;0.70;;
44784;SDS011;30507;53.160;8.210;2023-04-06T03:39:19;1.20;;;0.90;;
44784;SDS011;30507;53.160;8.210;2023-04-06T03:41:44;0.80;;;0.80;;
44784;SDS011;30507;53.160;8.210;2023-04-06T03:44:09;1.00;;;0.60;;
44784;SDS011;30507;53.160;8.210;2023-04-06T03:46:35;1.27;;;0.97;;
44784;SDS011;30507;53.160;8.210;2023-04-06T03:49:00;0.87;;;0.83;;
44784;SDS011;30507;53.160;8.210;2023-04-06T03:51:25;1.20;;;1.00;;
44784;SDS011;30507;53.160;8.210;2023-04-06T03:53:51;0.70;;;0.70;;
44784;SDS011;30507;53.160;8.210;2023-04-06T03:56:16;0.60;;;0.60;;
44784;SDS011;30507;53.160;8.210;2023-04-06T03:58:41;0.85;;;0.73;;
44784;SDS011;30507;53.160;8.210;2023-04-06T04:01:06;0.68;;;0.68;;
44784;SDS011;30507;53.160;8.210;2023-04-06T04:03:31;0.60;;;0.57;;
44784;SDS011;30507;53.160;8.210;2023-04-06T04:05:56;1.23;;;0.70;;
44784;SDS011;30507;53.160;8.210;2023-04-06T04:08:22;0.50;;;0.50;;
44784;SDS011;30507;53.160;8.210;2023-04-06T04:10:47;1.17;;;0.43;;
44784;SDS011;30507;53.160;8.210;2023-04-06T04:13:12;1.23;;;1.13;;
44784;SDS011;30507;53.160;8.210;2023-04-06T04:15:37;0.82;;;0.82;;
44784;SDS011;30507;53.160;8.210;2023-04-06T04:18:02;1.00;;;1.00;;
44784;SDS011;30507;53.160;8.210;2023-04-06T04:20:27;0.97;;;0.90;;
44784;SDS011;30507;53.160;8.210;2023-04-06T04:22:53;0.80;;;0.80;;
44784;SDS011;30507;53.160;8.210;2023-04-06T04:25:18;0.90;;;0.90;;
44784;SDS011;30507;53.160;8.210;2023-04-06T04:27:43;0.80;;;0.80;;
44784;SDS011;30507;53.160;8.210;2023-04-06T04:30:08;0.77;;;0.77;;
44784;SDS011;30507;53.160;8.210;2023-04-06T04:32:34;0.80;;;0.80;;
44784;SDS011;30507;53.160;8.210;2023-04-06T04:34:59;0.97;;;0.97;;
44784;SDS011;30507;53.160;8.210;2023-04-06T04:37:24;0.90;;;0.90;;
44784;SDS011;30507;53.160;8.210;2023-04-06T04:39:49;0.80;;;0.80;;
44784;SDS011;30507;53.160;8.210;2023-04-06T04:42:15;1.30;;;1.23;;
44784;SDS011;30507;53.160;8.210;2023-04-06T04:44:40;0.80;;;0.80;;
44784;SDS011;30507;53.160;8.210;2023-04-06T04:47:05;0.77;;;0.75;;
44784;SDS011;30507;53.160;8.210;2023-04-06T04:49:30;0.90;;;0.90;;
44784;SDS011;30507;53.160;8.210;2023-04-06T04:51:55;0.98;;;0.85;;
44784;SDS011;30507;53.160;8.210;2023-04-06T04:54:21;1.07;;;1.07;;
44784;SDS011;30507;53.160;8.210;2023-04-06T04:56:46;0.67;;;0.67;;
44784;SDS011;30507;53.160;8.210;2023-04-06T04:59:11;0.80;;;0.80;;
44784;SDS011;30507;53.160;8.210;2023-04-06T05:01:36;0.87;;;0.87;;
44784;SDS011;30507;53.160;8.210;2023-04-06T05:04:01;0.90;;;0.90;;
44784;SDS011;30507;53.160;8.210;2023-04-06T05:06:26;0.50;;;0.50;;
44784;SDS011;30507;53.160;8.210;2023-04-06T05:08:52;0.73;;;0.73;;
44784;SDS011;30507;53.160;8.210;2023-04-06T05:11:17;0.80;;;0.80;;
44784;SDS011;30507;53.160;8.210;2023-04-06T05:13:42;1.27;;;1.17;;
44784;SDS011;30507;53.160;8.210;2023-04-06T05:16:07;0.90;;;0.90;;
44784;SDS011;30507;53.160;8.210;2023-04-06T05:18:32;0.70;;;0.70;;
44784;SDS011;30507;53.160;8.210;2023-04-06T05:20:57;0.70;;;0.70;;
44784;SDS011;30507;53.160;8.210;2023-04-06T05:23:23;0.67;;;0.67;;
44784;SDS011;30507;53.160;8.210;2023-04-06T05:25:48;0.63;;;0.63;;
44784;SDS011;30507;53.160;8.210;2023-04-06T05:28:13;0.73;;;0.73;;
44784;SDS011;30507;53.160;8.210;2023-04-06T05:30:40;1.30;;;0.80;;
44784;SDS011;30507;53.160;8.210;2023-04-06T05:33:05;0.63;;;0.63;;
44784;SDS011;30507;53.160;8.210;2023-04-06T05:35:30;0.93;;;0.93;;
44784;SDS011;30507;53.160;8.210;2023-04-06T05:37:55;0.60;;;0.60;;
44784;SDS011;30507;53.160;8.210;2023-04-06T05:40:20;0.93;;;0.85;;
44784;SDS011;30507;53.160;8.210;2023-04-06T05:42:46;0.70;;;0.68;;
44784;SDS011;30507;53.160;8.210;2023-04-06T05:45:11;2.15;;;0.73;;
44784;SDS011;30507;53.160;8.210;2023-04-06T05:47:41;0.82;;;0.82;;
44784;SDS011;30507;53.160;8.210;2023-04-06T05:50:06;0.88;;;0.88;;
44784;SDS011;30507;53.160;8.210;2023-04-06T05:52:32;1.20;;;0.90;;
44784;SDS011;30507;53.160;8.210;2023-04-06T05:54:57;0.60;;;0.60;;
44784;SDS011;30507;53.160;8.210;2023-04-06T05:57:22;0.87;;;0.87;;
44784;SDS011;30507;53.160;8.210;2023-04-06T05:59:48;0.80;;;0.80;;
44784;SDS011;30507;53.160;8.210;2023-04-06T06:02:13;1.05;;;0.82;;
44784;SDS011;30507;53.160;8.210;2023-04-06T06:04:38;0.73;;;0.73;;
44784;SDS011;30507;53.160;8.210;2023-04-06T06:07:03;1.02;;;1.02;;
44784;SDS011;30507;53.160;8.210;2023-04-06T06:09:29;0.60;;;0.60;;
44784;SDS011;30507;53.160;8.210;2023-04-06T06:11:54;0.70;;;0.50;;
44784;SDS011;30507;53.160;8.210;2023-04-06T06:14:19;0.93;;;0.93;;
44784;SDS011;30507;53.160;8.210;2023-04-06T06:16:45;0.80;;;0.80;;
44784;SDS011;30507;53.160;8.210;2023-04-06T06:19:10;0.63;;;0.63;;
44784;SDS011;30507;53.160;8.210;2023-04-06T06:21:35;0.50;;;0.50;;
44784;SDS011;30507;53.160;8.210;2023-04-06T06:24:00;0.77;;;0.77;;
44784;SDS011;30507;53.160;8.210;2023-04-06T06:26:25;1.77;;;1.10;;
44784;SDS011;30507;53.160;8.210;2023-04-06T06:28:51;0.67;;;0.67;;
44784;SDS011;30507;53.160;8.210;2023-04-06T06:31:16;1.17;;;0.80;;
44784;SDS011;30507;53.160;8.210;2023-04-06T06:33:41;1.52;;;1.20;;
44784;SDS011;30507;53.160;8.210;2023-04-06T06:36:06;2.83;;;2.63;;
44784;SDS011;30507;53.160;8.210;2023-04-06T06:38:32;6.10;;;3.17;;
44784;SDS011;30507;53.160;8.210;2023-04-06T06:40:57;5.70;;;2.83;;
44784;SDS011;30507;53.160;8.210;2023-04-06T06:43:22;9.27;;;3.22;;
44784;SDS011;30507;53.160;8.210;2023-04-06T06:45:47;3.40;;;2.85;;
44784;SDS011;30507;53.160;8.210;2023-04-06T06:48:12;4.87;;;2.30;;
44784;SDS011;30507;53.160;8.210;2023-04-06T06:50:37;7.32;;;2.53;;
44784;SDS011;30507;53.160;8.210;2023-04-06T06:53:03;2.40;;;1.90;;
44784;SDS011;30507;53.160;8.210;2023-04-06T06:55:28;7.18;;;2.08;;
44784;SDS011;30507;53.160;8.210;2023-04-06T06:57:53;6.07;;;2.22;;
44784;SDS011;30507;53.160;8.210;2023-04-06T07:00:18;4.77;;;2.33;;
44784;SDS011;30507;53.160;8.210;2023-04-06T07:02:45;5.43;;;2.78;;
44784;SDS011;30507;53.160;8.210;2023-04-06T07:05:10;2.83;;;2.13;;
44784;SDS011;30507;53.160;8.210;2023-04-06T07:07:36;3.43;;;1.90;;
44784;SDS011;30507;53.160;8.210;2023-04-06T07:10:01;2.55;;;1.88;;
44784;SDS011;30507;53.160;8.210;2023-04-06T07:12:26;4.13;;;1.57;;
44784;SDS011;30507;53.160;8.210;2023-04-06T07:14:51;4.45;;;1.70;;
44784;SDS011;30507;53.160;8.210;2023-04-06T07:17:17;2.40;;;1.33;;
44784;SDS011;30507;53.160;8.210;2023-04-06T07:19:42;4.90;;;1.30;;
44784;SDS011;30507;53.160;8.210;2023-04-06T07:22:07;1.60;;;1.23;;
44784;SDS011;30507;53.160;8.210;2023-04-06T07:24:32;1.08;;;1.00;;
44784;SDS011;30507;53.160;8.210;2023-04-06T07:27:00;3.23;;;1.17;;
44784;SDS011;30507;53.160;8.210;2023-04-06T07:29:26;3.42;;;0.98;;
44784;SDS011;30507;53.160;8.210;2023-04-06T07:31:52;1.38;;;1.25;;
44784;SDS011;30507;53.160;8.210;2023-04-06T07:34:17;2.10;;;1.20;;
44784;SDS011;30507;53.160;8.210;2023-04-06T07:36:42;1.33;;;1.17;;
44784;SDS011;30507;53.160;8.210;2023-04-06T07:39:07;1.10;;;0.63;;
44784;SDS011;30507;53.160;8.210;2023-04-06T07:41:32;1.10;;;1.00;;
44784;SDS011;30507;53.160;8.210;2023-04-06T07:43:58;1.43;;;1.13;;
44784;SDS011;30507;53.160;8.210;2023-04-06T07:46:23;1.03;;;0.80;;
44784;SDS011;30507;53.160;8.210;2023-04-06T07:48:48;2.22;;;1.00;;
44784;SDS011;30507;53.160;8.210;2023-04-06T07:51:15;2.90;;;0.85;;
44784;SDS011;30507;53.160;8.210;2023-04-06T07:53:42;3.58;;;1.02;;
44784;SDS011;30507;53.160;8.210;2023-04-06T07:56:08;1.65;;;0.90;;
44784;SDS011;30507;53.160;8.210;2023-04-06T07:58:33;0.90;;;0.90;;
44784;SDS011;30507;53.160;8.210;2023-04-06T08:00:59;1.05;;;0.90;;
44784;SDS011;30507;53.160;8.210;2023-04-06T08:03:24;1.20;;;1.10;;
44784;SDS011;30507;53.160;8.210;2023-04-06T08:05:50;1.77;;;1.00;;
44784;SDS011;30507;53.160;8.210;2023-04-06T08:08:16;4.15;;;0.93;;
44784;SDS011;30507;53.160;8.210;2023-04-06T08:10:41;0.90;;;0.90;;
44784;SDS011;30507;53.160;8.210;2023-04-06T08:13:06;4.07;;;1.20;;
44784;SDS011;30507;53.160;8.210;2023-04-06T08:15:33;2.95;;;0.95;;
44784;SDS011;30507;53.160;8.210;2023-04-06T08:17:58;2.47;;;0.90;;
44784;SDS011;30507;53.160;8.210;2023-04-06T08:20:23;2.83;;;0.88;;
44784;SDS011;30507;53.160;8.210;2023-04-06T08:22:48;1.38;;;0.90;;
44784;SDS011;30507;53.160;8.210;2023-04-06T08:25:14;2.28;;;0.70;;
44784;SDS011;30507;53.160;8.210;2023-04-06T08:27:39;2.10;;;0.70;;
44784;SDS011;30507;53.160;8.210;2023-04-06T08:30:04;2.78;;;0.80;;
44784;SDS011;30507;53.160;8.210;2023-04-06T08:32:29;1.05;;;0.75;;
44784;SDS011;30507;53.160;8.210;2023-04-06T08:34:54;1.17;;;1.07;;
44784;SDS011;30507;53.160;8.210;2023-04-06T08:37:20;1.45;;;0.63;;
44784;SDS011;30507;53.160;8.210;2023-04-06T08:39:45;0.63;;;0.53;;
44784;SDS011;30507;53.160;8.210;2023-04-06T08:42:12;0.85;;;0.85;;
44784;SDS011;30507;53.160;8.210;2023-04-06T08:44:40;0.80;;;0.80;;
44784;SDS011;30507;53.160;8.210;2023-04-06T08:47:06;0.90;;;0.90;;
44784;SDS011;30507;53.160;8.210;2023-04-06T08:49:31;0.50;;;0.50;;
44784;SDS011;30507;53.160;8.210;2023-04-06T08:51:56;1.83;;;0.70;;
44784;SDS011;30507;53.160;8.210;2023-04-06T08:54:22;1.20;;;0.60;;
44784;SDS011;30507;53.160;8.210;2023-04-06T08:56:47;1.37;;;1.07;;
44784;SDS011;30507;53.160;8.210;2023-04-06T08:59:13;0.98;;;0.77;;
44784;SDS011;30507;53.160;8.210;2023-04-06T09:01:39;0.70;;;0.70;;
44784;SDS011;30507;53.160;8.210;2023-04-06T09:04:06;0.85;;;0.70;;
44784;SDS011;30507;53.160;8.210;2023-04-06T09:06:34;2.10;;;0.77;;
44784;SDS011;30507;53.160;8.210;2023-04-06T09:08:59;2.57;;;1.27;;
44784;SDS011;30507;53.160;8.210;2023-04-06T09:11:24;0.97;;;0.77;;
44784;SDS011;30507;53.160;8.210;2023-04-06T09:13:50;1.23;;;1.13;;
44784;SDS011;30507;53.160;8.210;2023-04-06T09:16:16;1.08;;;0.98;;
44784;SDS011;30507;53.160;8.210;2023-04-06T09:18:42;0.85;;;0.60;;
44784;SDS011;30507;53.160;8.210;2023-04-06T09:21:07;0.57;;;0.57;;
44784;SDS011;30507;53.160;8.210;2023-04-06T09:23:33;0.77;;;0.63;;
44784;SDS011;30507;53.160;8.210;2023-04-06T09:28:46;0.57;;;0.57;;
44784;SDS011;30507;53.160;8.210;2023-04-06T09:31:12;0.88;;;0.70;;
44784;SDS011;30507;53.160;8.210;2023-04-06T09:33:38;0.60;;;0.60;;
44784;SDS011;30507;53.160;8.210;2023-04-06T09:36:04;0.50;;;0.50;;
44784;SDS011;30507;53.160;8.210;2023-04-06T09:38:29;0.80;;;0.80;;
44784;SDS011;30507;53.160;8.210;2023-04-06T09:40:54;3.42;;;0.80;;
44784;SDS011;30507;53.160;8.210;2023-04-06T09:43:23;0.60;;;0.60;;
44784;SDS011;30507;53.160;8.210;2023-04-06T09:45:49;0.90;;;0.60;;
44784;SDS011;30507;53.160;8.210;2023-04-06T09:48:14;1.33;;;0.80;;
44784;SDS011;30507;53.160;8.210;2023-04-06T09:50:39;0.63;;;0.63;;
44784;SDS011;30507;53.160;8.210;2023-04-06T09:53:05;0.60;;;0.60;;
44784;SDS011;30507;53.160;8.210;2023-04-06T09:55:33;1.27;;;0.75;;
44784;SDS011;30507;53.160;8.210;2023-04-06T09:58:06;0.60;;;0.60;;
44784;SDS011;30507;53.160;8.210;2023-04-06T10:00:40;0.60;;;0.60;;
44784;SDS011;30507;53.160;8.210;2023-04-06T10:08:19;0.70;;;0.70;;
44784;SDS011;30507;53.160;8.210;2023-04-06T10:10:45;0.88;;;0.80;;
44784;SDS011;30507;53.160;8.210;2023-04-06T10:13:11;0.88;;;0.88;;
44784;SDS011;30507;53.160;8.210;2023-04-06T10:15:36;0.80;;;0.73;;
44784;SDS011;30507;53.160;8.210;2023-04-06T10:18:03;0.80;;;0.80;;
44784;SDS011;30507;53.160;8.210;2023-04-06T10:20:34;0.80;;;0.80;;
44784;SDS011;30507;53.160;8.210;2023-04-06T10:23:11;1.08;;;0.77;;
44784;SDS011;30507;53.160;8.210;2023-04-06T10:25:40;0.77;;;0.70;;
44784;SDS011;30507;53.160;8.210;2023-04-06T10:28:16;0.95;;;0.80;;
44784;SDS011;30507;53.160;8.210;2023-04-06T10:30:44;0.98;;;0.80;;
44784;SDS011;30507;53.160;8.210;2023-04-06T10:33:16;0.80;;;0.77;;
44784;SDS011;30507;53.160;8.210;2023-04-06T10:35:41;0.70;;;0.70;;
44784;SDS011;30507;53.160;8.210;2023-04-06T10:38:06;1.50;;;0.63;;
44784;SDS011;30507;53.160;8.210;2023-04-06T10:40:34;0.70;;;0.70;;
44784;SDS011;30507;53.160;8.210;2023-04-06T10:43:10;1.00;;;1.00;;
44784;SDS011;30507;53.160;8.210;2023-04-06T10:45:35;0.73;;;0.73;;
44784;SDS011;30507;53.160;8.210;2023-04-06T10:48:01;1.15;;;1.08;;
44784;SDS011;30507;53.160;8.210;2023-04-06T10:50:26;1.13;;;1.00;;
44784;SDS011;30507;53.160;8.210;2023-04-06T10:52:59;0.75;;;0.70;;
44784;SDS011;30507;53.160;8.210;2023-04-06T10:55:25;0.77;;;0.77;;
44784;SDS011;30507;53.160;8.210;2023-04-06T10:57:51;0.73;;;0.60;;
44784;SDS011;30507;53.160;8.210;2023-04-06T11:00:16;1.10;;;1.00;;
44784;SDS011;30507;53.160;8.210;2023-04-06T11:02:42;0.88;;;0.88;;
44784;SDS011;30507;53.160;8.210;2023-04-06T11:05:07;0.77;;;0.77;;
44784;SDS011;30507;53.160;8.210;2023-04-06T11:07:32;0.90;;;0.90;;
44784;SDS011;30507;53.160;8.210;2023-04-06T11:09:57;0.87;;;0.87;;
44784;SDS011;30507;53.160;8.210;2023-04-06T11:12:27;0.93;;;0.90;;
44784;SDS011;30507;53.160;8.210;2023-04-06T11:14:56;0.98;;;0.82;;
44784;SDS011;30507;53.160;8.210;2023-04-06T11:17:26;4.85;;;1.60;;
44784;SDS011;30507;53.160;8.210;2023-04-06T11:19:51;2.28;;;1.05;;
44784;SDS011;30507;53.160;8.210;2023-04-06T11:22:17;1.00;;;0.90;;
44784;SDS011;30507;53.160;8.210;2023-04-06T11:24:42;1.20;;;1.00;;
44784;SDS011;30507;53.160;8.210;2023-04-06T11:27:07;0.77;;;0.77;;
44784;SDS011;30507;53.160;8.210;2023-04-06T11:29:32;1.00;;;1.00;;
44784;SDS011;30507;53.160;8.210;2023-04-06T11:31:59;0.80;;;0.80;;
44784;SDS011;30507;53.160;8.210;2023-04-06T11:34:25;0.80;;;0.80;;
44784;SDS011;30507;53.160;8.210;2023-04-06T11:36:54;0.82;;;0.82;;
44784;SDS011;30507;53.160;8.210;2023-04-06T11:39:20;0.70;;;0.70;;
44784;SDS011;30507;53.160;8.210;2023-04-06T11:41:49;0.63;;;0.63;;
44784;SDS011;30507;53.160;8.210;2023-04-06T11:44:15;1.15;;;1.05;;
44784;SDS011;30507;53.160;8.210;2023-04-06T11:46:40;0.60;;;0.60;;
44784;SDS011;30507;53.160;8.210;2023-04-06T11:49:05;0.70;;;0.70;;
44784;SDS011;30507;53.160;8.210;2023-04-06T11:51:35;0.80;;;0.80;;
44784;SDS011;30507;53.160;8.210;2023-04-06T11:54:00;0.88;;;0.88;;
44784;SDS011;30507;53.160;8.210;2023-04-06T11:56:28;0.90;;;0.90;;
44784;SDS011;30507;53.160;8.210;2023-04-06T11:58:54;0.70;;;0.70;;
44784;SDS011;30507;53.160;8.210;2023-04-06T12:01:20;2.35;;;0.73;;
44784;SDS011;30507;53.160;8.210;2023-04-06T12:03:45;0.63;;;0.63;;
44784;SDS011;30507;53.160;8.210;2023-04-06T12:06:10;1.20;;;1.00;;
44784;SDS011;30507;53.160;8.210;2023-04-06T12:08:35;0.70;;;0.70;;
44784;SDS011;30507;53.160;8.210;2023-04-06T12:11:00;0.85;;;0.85;;
44784;SDS011;30507;53.160;8.210;2023-04-06T12:13:26;0.97;;;0.90;;
44784;SDS011;30507;53.160;8.210;2023-04-06T12:15:52;1.58;;;1.13;;
44784;SDS011;30507;53.160;8.210;2023-04-06T12:18:17;1.27;;;1.17;;
44784;SDS011;30507;53.160;8.210;2023-04-06T12:20:42;0.87;;;0.87;;
44784;SDS011;30507;53.160;8.210;2023-04-06T12:23:08;0.90;;;0.90;;
44784;SDS011;30507;53.160;8.210;2023-04-06T12:25:33;1.00;;;1.00;;
44784;SDS011;30507;53.160;8.210;2023-04-06T12:27:58;1.08;;;1.05;;
44784;SDS011;30507;53.160;8.210;2023-04-06T12:30:23;1.03;;;1.03;;
44784;SDS011;30507;53.160;8.210;2023-04-06T12:32:49;1.40;;;1.10;;
44784;SDS011;30507;53.160;8.210;2023-04-06T12:35:15;2.25;;;1.10;;
44784;SDS011;30507;53.160;8.210;2023-04-06T12:37:40;1.20;;;1.10;;
44784;SDS011;30507;53.160;8.210;2023-04-06T12:40:06;1.40;;;1.30;;
44784;SDS011;30507;53.160;8.210;2023-04-06T12:42:31;1.00;;;1.00;;
44784;SDS011;30507;53.160;8.210;2023-04-06T12:44:56;1.50;;;1.40;;
44784;SDS011;30507;53.160;8.210;2023-04-06T12:47:21;1.30;;;1.20;;
44784;SDS011;30507;53.160;8.210;2023-04-06T12:49:47;1.50;;;1.40;;
44784;SDS011;30507;53.160;8.210;2023-04-06T12:52:12;1.13;;;1.10;;
44784;SDS011;30507;53.160;8.210;2023-04-06T12:54:37;1.70;;;1.55;;
44784;SDS011;30507;53.160;8.210;2023-04-06T12:57:03;1.80;;;1.37;;
44784;SDS011;30507;53.160;8.210;2023-04-06T12:59:28;1.57;;;1.40;;
44784;SDS011;30507;53.160;8.210;2023-04-06T13:01:59;1.52;;;1.42;;
44784;SDS011;30507;53.160;8.210;2023-04-06T13:04:24;1.48;;;1.38;;
44784;SDS011;30507;53.160;8.210;2023-04-06T13:06:51;0.93;;;0.93;;
44784;SDS011;30507;53.160;8.210;2023-04-06T13:09:16;2.47;;;1.57;;
44784;SDS011;30507;53.160;8.210;2023-04-06T13:11:41;0.90;;;0.90;;
44784;SDS011;30507;53.160;8.210;2023-04-06T13:14:06;1.40;;;1.30;;
44784;SDS011;30507;53.160;8.210;2023-04-06T13:16:31;0.90;;;0.90;;
44784;SDS011;30507;53.160;8.210;2023-04-06T13:18:57;0.83;;;0.83;;
44784;SDS011;30507;53.160;8.210;2023-04-06T13:21:22;1.03;;;0.97;;
44784;SDS011;30507;53.160;8.210;2023-04-06T13:23:47;1.05;;;1.05;;
44784;SDS011;30507;53.160;8.210;2023-04-06T13:26:12;1.37;;;1.27;;
44784;SDS011;30507;53.160;8.210;2023-04-06T13:28:39;1.20;;;1.10;;
44784;SDS011;30507;53.160;8.210;2023-04-06T13:31:05;1.47;;;1.13;;
44784;SDS011;30507;53.160;8.210;2023-04-06T13:33:30;0.80;;;0.80;;
44784;SDS011;30507;53.160;8.210;2023-04-06T13:35:56;1.23;;;1.13;;
44784;SDS011;30507;53.160;8.210;2023-04-06T13:38:21;1.45;;;1.30;;
44784;SDS011;30507;53.160;8.210;2023-04-06T13:40:48;1.43;;;1.10;;
44784;SDS011;30507;53.160;8.210;2023-04-06T13:43:14;0.90;;;0.90;;
44784;SDS011;30507;53.160;8.210;2023-04-06T13:45:40;0.98;;;0.98;;
44784;SDS011;30507;53.160;8.210;2023-04-06T13:48:05;1.37;;;1.27;;
44784;SDS011;30507;53.160;8.210;2023-04-06T13:50:30;0.85;;;0.85;;
44784;SDS011;30507;53.160;8.210;2023-04-06T13:52:55;1.13;;;1.03;;
44784;SDS011;30507;53.160;8.210;2023-04-06T13:55:21;1.03;;;1.00;;
44784;SDS011;30507;53.160;8.210;2023-04-06T13:57:46;1.13;;;1.07;;
44784;SDS011;30507;53.160;8.210;2023-04-06T14:00:11;0.85;;;0.85;;
44784;SDS011;30507;53.160;8.210;2023-04-06T14:02:37;1.08;;;1.00;;
44784;SDS011;30507;53.160;8.210;2023-04-06T14:05:02;0.90;;;0.90;;
44784;SDS011;30507;53.160;8.210;2023-04-06T14:07:28;0.93;;;0.93;;
44784;SDS011;30507;53.160;8.210;2023-04-06T14:09:53;0.77;;;0.77;;
44784;SDS011;30507;53.160;8.210;2023-04-06T14:12:18;1.00;;;0.90;;
44784;SDS011;30507;53.160;8.210;2023-04-06T14:14:43;1.48;;;1.38;;
44784;SDS011;30507;53.160;8.210;2023-04-06T14:17:09;1.40;;;1.30;;
44784;SDS011;30507;53.160;8.210;2023-04-06T14:19:34;1.10;;;1.00;;
44784;SDS011;30507;53.160;8.210;2023-04-06T14:22:00;1.15;;;1.13;;
44784;SDS011;30507;53.160;8.210;2023-04-06T14:24:26;1.50;;;0.82;;
44784;SDS011;30507;53.160;8.210;2023-04-06T14:26:51;1.03;;;1.00;;
44784;SDS011;30507;53.160;8.210;2023-04-06T14:29:16;0.77;;;0.77;;
44784;SDS011;30507;53.160;8.210;2023-04-06T14:31:42;0.75;;;0.75;;
44784;SDS011;30507;53.160;8.210;2023-04-06T14:34:07;1.02;;;1.02;;
44784;SDS011;30507;53.160;8.210;2023-04-06T14:36:32;1.03;;;1.03;;
44784;SDS011;30507;53.160;8.210;2023-04-06T14:39:05;1.70;;;1.60;;
44784;SDS011;30507;53.160;8.210;2023-04-06T14:41:31;1.15;;;1.05;;
44784;SDS011;30507;53.160;8.210;2023-04-06T14:43:56;0.80;;;0.80;;
44784;SDS011;30507;53.160;8.210;2023-04-06T14:46:21;0.60;;;0.60;;